sensor_id;sensor_type;location;lat;lon;timestamp;P1;durP1;ratioP1;P2;durP2;ratioP2
9960;SDS011;5021;51.506;11.320;2023-01-26T00:01:10;17.00;;;10.87;;
9960;SDS011;5021;51.506;11.320;2023-01-26T00:03:36;17.53;;;11.10;;
9960;SDS011;5021;51.506;11.320;2023-01-26T00:06:03;15.23;;;10.80;;
9960;SDS011;5021;51.506;11.320;2023-01-26T00:08:30;12.63;;;8.60;;
9960;SDS011;5021;51.506;11.320;2023-01-26T00:10:56;14.33;;;9.27;;
9960;SDS011;5021;51.506;11.320;2023-01-26T00:13:22;14.10;;;9.47;;
9960;SDS011;5021;51.506;11.320;2023-01-26T00:15:48;14.47;;;9.13;;
9960;SDS011;5021;51.506;11.320;2023-01-26T00:18:14;13.67;;;8.40;;
9960;SDS011;5021;51.506;11.320;2023-01-26T00:20:40;11.50;;;8.20;;
9960;SDS011;5021;51.506;11.320;2023-01-26T00:23:06;9.57;;;6.93;;
9960;SDS011;5021;51.506;11.320;2023-01-26T00:25:32;9.30;;;7.40;;
9960;SDS011;5021;51.506;11.320;2023-01-26T00:27:57;8.97;;;6.53;;
9960;SDS011;5021;51.506;11.320;2023-01-26T00:30:23;9.97;;;7.17;;
9960;SDS011;5021;51.506;11.320;2023-01-26T00:32:49;11.37;;;7.47;;
9960;SDS011;5021;51.506;11.320;2023-01-26T00:35:15;8.50;;;6.17;;
9960;SDS011;5021;51.506;11.320;2023-01-26T00:37:41;9.00;;;6.77;;
9960;SDS011;5021;51.506;11.320;2023-01-26T00:40:08;10.10;;;6.70;;
9960;SDS011;5021;51.506;11.320;2023-01-26T00:42:34;9.30;;;6.93;;
9960;SDS011;5021;51.506;11.320;2023-01-26T00:45:00;9.90;;;6.87;;
9960;SDS011;5021;51.506;11.320;2023-01-26T00:47:26;10.50;;;7.10;;
9960;SDS011;5021;51.506;11.320;2023-01-26T00:49:52;8.77;;;6.73;;
9960;SDS011;5021;51.506;11.320;2023-01-26T00:52:18;10.00;;;6.83;;
9960;SDS011;5021;51.506;11.320;2023-01-26T00:54:44;10.67;;;7.43;;
9960;SDS011;5021;51.506;11.320;2023-01-26T00:57:09;9.17;;;6.50;;
9960;SDS011;5021;51.506;11.320;2023-01-26T00:59:35;9.23;;;6.53;;
9960;SDS011;5021;51.506;11.320;2023-01-26T01:02:02;9.33;;;6.50;;
9960;SDS011;5021;51.506;11.320;2023-01-26T01:04:28;9.57;;;6.90;;
9960;SDS011;5021;51.506;11.320;2023-01-26T01:06:55;8.77;;;6.33;;
9960;SDS011;5021;51.506;11.320;2023-01-26T01:09:21;8.90;;;6.57;;
9960;SDS011;5021;51.506;11.320;2023-01-26T01:11:47;9.60;;;6.63;;
9960;SDS011;5021;51.506;11.320;2023-01-26T01:14:13;8.93;;;7.00;;
9960;SDS011;5021;51.506;11.320;2023-01-26T01:16:39;10.70;;;7.57;;
9960;SDS011;5021;51.506;11.320;2023-01-26T01:19:06;9.27;;;6.83;;
9960;SDS011;5021;51.506;11.320;2023-01-26T01:21:32;10.27;;;6.67;;
9960;SDS011;5021;51.506;11.320;2023-01-26T01:23:58;9.90;;;7.13;;
9960;SDS011;5021;51.506;11.320;2023-01-26T01:26:24;8.20;;;6.67;;
9960;SDS011;5021;51.506;11.320;2023-01-26T01:28:52;9.63;;;6.73;;
9960;SDS011;5021;51.506;11.320;2023-01-26T01:31:19;9.73;;;6.70;;
9960;SDS011;5021;51.506;11.320;2023-01-26T01:33:45;9.40;;;6.80;;
9960;SDS011;5021;51.506;11.320;2023-01-26T01:36:12;8.70;;;6.90;;
9960;SDS011;5021;51.506;11.320;2023-01-26T01:38:38;9.27;;;6.40;;
9960;SDS011;5021;51.506;11.320;2023-01-26T01:41:05;9.33;;;6.53;;
9960;SDS011;5021;51.506;11.320;2023-01-26T01:43:31;8.13;;;6.67;;
9960;SDS011;5021;51.506;11.320;2023-01-26T01:45:57;12.60;;;7.43;;
9960;SDS011;5021;51.506;11.320;2023-01-26T01:48:46;8.97;;;6.03;;
9960;SDS011;5021;51.506;11.320;2023-01-26T01:51:15;10.23;;;6.80;;
9960;SDS011;5021;51.506;11.320;2023-01-26T01:53:44;9.43;;;6.10;;
9960;SDS011;5021;51.506;11.320;2023-01-26T01:56:13;9.53;;;6.67;;
9960;SDS011;5021;51.506;11.320;2023-01-26T01:58:43;10.43;;;6.97;;
9960;SDS011;5021;51.506;11.320;2023-01-26T02:01:10;10.37;;;7.60;;
9960;SDS011;5021;51.506;11.320;2023-01-26T02:03:36;9.90;;;7.33;;
9960;SDS011;5021;51.506;11.320;2023-01-26T02:06:06;11.23;;;7.50;;
9960;SDS011;5021;51.506;11.320;2023-01-26T02:08:34;10.13;;;7.60;;
9960;SDS011;5021;51.506;11.320;2023-01-26T02:11:05;12.53;;;7.87;;
9960;SDS011;5021;51.506;11.320;2023-01-26T02:13:32;10.07;;;7.07;;
9960;SDS011;5021;51.506;11.320;2023-01-26T02:15:58;11.27;;;6.77;;
9960;SDS011;5021;51.506;11.320;2023-01-26T02:18:24;9.57;;;7.07;;
9960;SDS011;5021;51.506;11.320;2023-01-26T02:20:59;10.83;;;7.83;;
9960;SDS011;5021;51.506;11.320;2023-01-26T02:23:31;11.43;;;7.80;;
9960;SDS011;5021;51.506;11.320;2023-01-26T02:26:05;11.70;;;8.03;;
9960;SDS011;5021;51.506;11.320;2023-01-26T02:28:31;10.93;;;7.87;;
9960;SDS011;5021;51.506;11.320;2023-01-26T02:30:57;11.07;;;7.90;;
9960;SDS011;5021;51.506;11.320;2023-01-26T02:33:27;11.37;;;7.90;;
9960;SDS011;5021;51.506;11.320;2023-01-26T02:35:53;12.73;;;9.10;;
9960;SDS011;5021;51.506;11.320;2023-01-26T02:38:20;13.57;;;8.33;;
9960;SDS011;5021;51.506;11.320;2023-01-26T02:40:53;12.53;;;8.93;;
9960;SDS011;5021;51.506;11.320;2023-01-26T02:43:20;12.40;;;8.40;;
9960;SDS011;5021;51.506;11.320;2023-01-26T02:45:48;12.67;;;9.10;;
9960;SDS011;5021;51.506;11.320;2023-01-26T02:48:14;11.03;;;8.30;;
9960;SDS011;5021;51.506;11.320;2023-01-26T02:51:00;11.80;;;7.97;;
9960;SDS011;5021;51.506;11.320;2023-01-26T02:53:26;11.17;;;7.07;;
9960;SDS011;5021;51.506;11.320;2023-01-26T02:55:52;12.03;;;8.27;;
9960;SDS011;5021;51.506;11.320;2023-01-26T02:58:17;14.30;;;8.63;;
9960;SDS011;5021;51.506;11.320;2023-01-26T03:00:43;11.23;;;8.30;;
9960;SDS011;5021;51.506;11.320;2023-01-26T03:03:11;9.60;;;6.67;;
9960;SDS011;5021;51.506;11.320;2023-01-26T03:05:37;11.23;;;7.83;;
9960;SDS011;5021;51.506;11.320;2023-01-26T03:08:03;10.50;;;7.50;;
9960;SDS011;5021;51.506;11.320;2023-01-26T03:10:30;10.37;;;7.97;;
9960;SDS011;5021;51.506;11.320;2023-01-26T03:12:56;10.17;;;7.43;;
9960;SDS011;5021;51.506;11.320;2023-01-26T03:15:22;9.77;;;6.87;;
9960;SDS011;5021;51.506;11.320;2023-01-26T03:18:07;8.70;;;6.67;;
9960;SDS011;5021;51.506;11.320;2023-01-26T03:20:53;8.10;;;6.43;;
9960;SDS011;5021;51.506;11.320;2023-01-26T03:23:37;7.80;;;5.90;;
9960;SDS011;5021;51.506;11.320;2023-01-26T03:26:22;8.37;;;6.33;;
9960;SDS011;5021;51.506;11.320;2023-01-26T03:29:06;8.33;;;6.30;;
9960;SDS011;5021;51.506;11.320;2023-01-26T03:31:32;12.73;;;8.90;;
9960;SDS011;5021;51.506;11.320;2023-01-26T03:33:58;10.03;;;7.33;;
9960;SDS011;5021;51.506;11.320;2023-01-26T03:36:24;13.43;;;9.10;;
9960;SDS011;5021;51.506;11.320;2023-01-26T03:38:50;10.77;;;7.73;;
9960;SDS011;5021;51.506;11.320;2023-01-26T03:41:16;9.50;;;6.73;;
9960;SDS011;5021;51.506;11.320;2023-01-26T03:44:00;9.33;;;6.83;;
9960;SDS011;5021;51.506;11.320;2023-01-26T03:46:45;8.20;;;6.53;;
9960;SDS011;5021;51.506;11.320;2023-01-26T03:49:29;10.07;;;7.40;;
9960;SDS011;5021;51.506;11.320;2023-01-26T03:52:14;9.87;;;7.40;;
9960;SDS011;5021;51.506;11.320;2023-01-26T03:54:59;8.03;;;5.73;;
9960;SDS011;5021;51.506;11.320;2023-01-26T03:57:43;10.70;;;7.17;;
9960;SDS011;5021;51.506;11.320;2023-01-26T04:00:09;9.83;;;6.87;;
9960;SDS011;5021;51.506;11.320;2023-01-26T04:02:35;9.17;;;6.40;;
9960;SDS011;5021;51.506;11.320;2023-01-26T04:05:20;10.43;;;7.07;;
9960;SDS011;5021;51.506;11.320;2023-01-26T04:08:05;10.10;;;6.30;;
9960;SDS011;5021;51.506;11.320;2023-01-26T04:10:51;9.30;;;6.53;;
9960;SDS011;5021;51.506;11.320;2023-01-26T04:13:18;10.07;;;6.87;;
9960;SDS011;5021;51.506;11.320;2023-01-26T04:16:02;8.67;;;6.43;;
9960;SDS011;5021;51.506;11.320;2023-01-26T04:18:47;11.60;;;7.40;;
9960;SDS011;5021;51.506;11.320;2023-01-26T04:21:32;10.27;;;6.63;;
9960;SDS011;5021;51.506;11.320;2023-01-26T04:23:58;9.00;;;6.77;;
9960;SDS011;5021;51.506;11.320;2023-01-26T04:26:28;10.93;;;7.40;;
9960;SDS011;5021;51.506;11.320;2023-01-26T04:29:04;10.27;;;7.07;;
9960;SDS011;5021;51.506;11.320;2023-01-26T04:31:30;7.27;;;5.37;;
9960;SDS011;5021;51.506;11.320;2023-01-26T04:33:57;7.97;;;5.70;;
9960;SDS011;5021;51.506;11.320;2023-01-26T04:36:23;8.67;;;6.40;;
9960;SDS011;5021;51.506;11.320;2023-01-26T04:38:49;9.73;;;6.40;;
9960;SDS011;5021;51.506;11.320;2023-01-26T04:41:14;8.60;;;6.10;;
9960;SDS011;5021;51.506;11.320;2023-01-26T04:43:41;8.03;;;6.17;;
9960;SDS011;5021;51.506;11.320;2023-01-26T04:46:07;10.03;;;6.27;;
9960;SDS011;5021;51.506;11.320;2023-01-26T04:48:33;8.17;;;5.90;;
9960;SDS011;5021;51.506;11.320;2023-01-26T04:51:00;7.40;;;5.30;;
9960;SDS011;5021;51.506;11.320;2023-01-26T04:53:26;6.77;;;4.97;;
9960;SDS011;5021;51.506;11.320;2023-01-26T04:55:53;7.50;;;5.70;;
9960;SDS011;5021;51.506;11.320;2023-01-26T04:58:19;6.87;;;5.13;;
9960;SDS011;5021;51.506;11.320;2023-01-26T05:00:52;10.17;;;6.43;;
9960;SDS011;5021;51.506;11.320;2023-01-26T05:03:18;8.77;;;6.63;;
9960;SDS011;5021;51.506;11.320;2023-01-26T05:05:46;6.17;;;5.37;;
9960;SDS011;5021;51.506;11.320;2023-01-26T05:08:13;6.97;;;5.17;;
9960;SDS011;5021;51.506;11.320;2023-01-26T05:10:39;7.03;;;5.20;;
9960;SDS011;5021;51.506;11.320;2023-01-26T05:13:04;6.37;;;5.23;;
9960;SDS011;5021;51.506;11.320;2023-01-26T05:15:30;7.30;;;5.40;;
9960;SDS011;5021;51.506;11.320;2023-01-26T05:17:57;7.23;;;5.57;;
9960;SDS011;5021;51.506;11.320;2023-01-26T05:20:24;6.70;;;5.23;;
9960;SDS011;5021;51.506;11.320;2023-01-26T05:22:49;7.63;;;5.50;;
9960;SDS011;5021;51.506;11.320;2023-01-26T05:25:16;6.77;;;5.40;;
9960;SDS011;5021;51.506;11.320;2023-01-26T05:27:42;8.00;;;5.83;;
9960;SDS011;5021;51.506;11.320;2023-01-26T05:30:08;9.53;;;5.90;;
9960;SDS011;5021;51.506;11.320;2023-01-26T05:32:34;8.17;;;6.27;;
9960;SDS011;5021;51.506;11.320;2023-01-26T05:35:01;8.90;;;6.43;;
9960;SDS011;5021;51.506;11.320;2023-01-26T05:37:27;8.70;;;6.80;;
9960;SDS011;5021;51.506;11.320;2023-01-26T05:39:53;10.60;;;7.23;;
9960;SDS011;5021;51.506;11.320;2023-01-26T05:42:19;10.53;;;7.27;;
9960;SDS011;5021;51.506;11.320;2023-01-26T05:44:45;9.30;;;6.90;;
9960;SDS011;5021;51.506;11.320;2023-01-26T05:47:11;9.60;;;7.43;;
9960;SDS011;5021;51.506;11.320;2023-01-26T05:49:37;8.87;;;6.53;;
9960;SDS011;5021;51.506;11.320;2023-01-26T05:52:16;9.33;;;6.70;;
9960;SDS011;5021;51.506;11.320;2023-01-26T05:54:43;10.40;;;6.97;;
9960;SDS011;5021;51.506;11.320;2023-01-26T05:57:09;9.27;;;6.73;;
9960;SDS011;5021;51.506;11.320;2023-01-26T05:59:35;9.37;;;6.70;;
9960;SDS011;5021;51.506;11.320;2023-01-26T06:02:01;10.40;;;7.37;;
9960;SDS011;5021;51.506;11.320;2023-01-26T06:04:27;9.70;;;6.60;;
9960;SDS011;5021;51.506;11.320;2023-01-26T06:06:54;9.70;;;6.73;;
9960;SDS011;5021;51.506;11.320;2023-01-26T06:09:20;10.57;;;7.30;;
9960;SDS011;5021;51.506;11.320;2023-01-26T06:11:46;10.63;;;7.60;;
9960;SDS011;5021;51.506;11.320;2023-01-26T06:14:12;9.80;;;7.53;;
9960;SDS011;5021;51.506;11.320;2023-01-26T06:16:38;10.53;;;7.47;;
9960;SDS011;5021;51.506;11.320;2023-01-26T06:19:05;9.70;;;6.80;;
9960;SDS011;5021;51.506;11.320;2023-01-26T06:21:31;10.40;;;7.00;;
9960;SDS011;5021;51.506;11.320;2023-01-26T06:23:57;9.07;;;6.93;;
9960;SDS011;5021;51.506;11.320;2023-01-26T06:26:23;8.63;;;6.33;;
9960;SDS011;5021;51.506;11.320;2023-01-26T06:28:50;12.17;;;8.60;;
9960;SDS011;5021;51.506;11.320;2023-01-26T06:31:16;8.63;;;6.03;;
9960;SDS011;5021;51.506;11.320;2023-01-26T06:33:42;7.80;;;5.90;;
9960;SDS011;5021;51.506;11.320;2023-01-26T06:36:09;10.30;;;7.47;;
9960;SDS011;5021;51.506;11.320;2023-01-26T06:38:35;9.53;;;6.43;;
9960;SDS011;5021;51.506;11.320;2023-01-26T06:41:01;10.57;;;7.97;;
9960;SDS011;5021;51.506;11.320;2023-01-26T06:43:28;9.40;;;7.23;;
9960;SDS011;5021;51.506;11.320;2023-01-26T06:45:55;11.13;;;7.67;;
9960;SDS011;5021;51.506;11.320;2023-01-26T06:48:24;11.50;;;7.97;;
9960;SDS011;5021;51.506;11.320;2023-01-26T06:50:50;9.83;;;6.47;;
9960;SDS011;5021;51.506;11.320;2023-01-26T06:53:33;9.70;;;6.77;;
9960;SDS011;5021;51.506;11.320;2023-01-26T06:55:59;7.20;;;5.30;;
9960;SDS011;5021;51.506;11.320;2023-01-26T06:58:25;6.67;;;4.73;;
9960;SDS011;5021;51.506;11.320;2023-01-26T07:00:51;6.67;;;4.70;;
9960;SDS011;5021;51.506;11.320;2023-01-26T07:03:17;6.50;;;5.10;;
9960;SDS011;5021;51.506;11.320;2023-01-26T07:05:43;7.47;;;5.40;;
9960;SDS011;5021;51.506;11.320;2023-01-26T07:08:09;6.27;;;5.00;;
9960;SDS011;5021;51.506;11.320;2023-01-26T07:10:35;5.50;;;4.80;;
9960;SDS011;5021;51.506;11.320;2023-01-26T07:13:02;6.03;;;5.03;;
9960;SDS011;5021;51.506;11.320;2023-01-26T07:15:28;6.43;;;5.10;;
9960;SDS011;5021;51.506;11.320;2023-01-26T07:17:55;7.00;;;4.90;;
9960;SDS011;5021;51.506;11.320;2023-01-26T07:20:21;6.30;;;5.00;;
9960;SDS011;5021;51.506;11.320;2023-01-26T07:22:47;8.23;;;5.37;;
9960;SDS011;5021;51.506;11.320;2023-01-26T07:25:14;6.93;;;5.73;;
9960;SDS011;5021;51.506;11.320;2023-01-26T07:27:40;6.23;;;5.33;;
9960;SDS011;5021;51.506;11.320;2023-01-26T07:30:06;7.07;;;5.43;;
9960;SDS011;5021;51.506;11.320;2023-01-26T07:32:32;5.17;;;4.50;;
9960;SDS011;5021;51.506;11.320;2023-01-26T07:34:58;7.20;;;5.53;;
9960;SDS011;5021;51.506;11.320;2023-01-26T07:37:27;7.30;;;5.13;;
9960;SDS011;5021;51.506;11.320;2023-01-26T07:39:53;7.97;;;5.23;;
9960;SDS011;5021;51.506;11.320;2023-01-26T07:42:19;7.23;;;5.50;;
9960;SDS011;5021;51.506;11.320;2023-01-26T07:44:45;7.40;;;5.37;;
9960;SDS011;5021;51.506;11.320;2023-01-26T07:47:11;6.07;;;4.93;;
9960;SDS011;5021;51.506;11.320;2023-01-26T07:49:38;5.40;;;4.40;;
9960;SDS011;5021;51.506;11.320;2023-01-26T07:52:04;5.77;;;4.90;;
9960;SDS011;5021;51.506;11.320;2023-01-26T07:54:30;6.07;;;4.43;;
9960;SDS011;5021;51.506;11.320;2023-01-26T07:56:56;6.67;;;5.07;;
9960;SDS011;5021;51.506;11.320;2023-01-26T07:59:22;5.70;;;4.33;;
9960;SDS011;5021;51.506;11.320;2023-01-26T08:01:48;6.87;;;5.43;;
9960;SDS011;5021;51.506;11.320;2023-01-26T08:04:15;7.20;;;4.90;;
9960;SDS011;5021;51.506;11.320;2023-01-26T08:06:41;6.03;;;4.83;;
9960;SDS011;5021;51.506;11.320;2023-01-26T08:09:07;5.53;;;4.67;;
9960;SDS011;5021;51.506;11.320;2023-01-26T08:11:33;5.73;;;4.57;;
9960;SDS011;5021;51.506;11.320;2023-01-26T08:13:59;5.27;;;4.33;;
9960;SDS011;5021;51.506;11.320;2023-01-26T08:16:25;5.73;;;4.50;;
9960;SDS011;5021;51.506;11.320;2023-01-26T08:18:51;5.30;;;4.50;;
9960;SDS011;5021;51.506;11.320;2023-01-26T08:21:17;5.73;;;4.60;;
9960;SDS011;5021;51.506;11.320;2023-01-26T08:23:46;6.60;;;4.97;;
9960;SDS011;5021;51.506;11.320;2023-01-26T08:26:13;6.20;;;4.67;;
9960;SDS011;5021;51.506;11.320;2023-01-26T08:28:39;6.17;;;4.87;;
9960;SDS011;5021;51.506;11.320;2023-01-26T08:31:06;6.73;;;5.57;;
9960;SDS011;5021;51.506;11.320;2023-01-26T08:33:32;8.27;;;6.17;;
9960;SDS011;5021;51.506;11.320;2023-01-26T08:36:06;7.53;;;6.10;;
9960;SDS011;5021;51.506;11.320;2023-01-26T08:38:32;8.47;;;6.17;;
9960;SDS011;5021;51.506;11.320;2023-01-26T08:40:58;9.20;;;6.73;;
9960;SDS011;5021;51.506;11.320;2023-01-26T08:43:24;7.53;;;5.43;;
9960;SDS011;5021;51.506;11.320;2023-01-26T08:45:50;7.07;;;5.43;;
9960;SDS011;5021;51.506;11.320;2023-01-26T08:48:16;5.90;;;4.87;;
9960;SDS011;5021;51.506;11.320;2023-01-26T08:50:43;6.17;;;5.10;;
9960;SDS011;5021;51.506;11.320;2023-01-26T08:53:09;7.17;;;5.20;;
9960;SDS011;5021;51.506;11.320;2023-01-26T08:55:35;7.17;;;5.53;;
9960;SDS011;5021;51.506;11.320;2023-01-26T08:58:00;9.20;;;6.33;;
9960;SDS011;5021;51.506;11.320;2023-01-26T09:00:27;8.50;;;6.30;;
9960;SDS011;5021;51.506;11.320;2023-01-26T09:03:11;8.30;;;6.17;;
9960;SDS011;5021;51.506;11.320;2023-01-26T09:05:37;7.93;;;5.77;;
9960;SDS011;5021;51.506;11.320;2023-01-26T09:08:04;10.13;;;7.23;;
9960;SDS011;5021;51.506;11.320;2023-01-26T09:10:30;12.50;;;8.77;;
9960;SDS011;5021;51.506;11.320;2023-01-26T09:12:57;15.10;;;8.77;;
9960;SDS011;5021;51.506;11.320;2023-01-26T09:15:23;13.23;;;8.67;;
9960;SDS011;5021;51.506;11.320;2023-01-26T09:17:49;15.57;;;9.80;;
9960;SDS011;5021;51.506;11.320;2023-01-26T09:20:15;13.90;;;9.53;;
9960;SDS011;5021;51.506;11.320;2023-01-26T09:22:41;16.33;;;9.60;;
9960;SDS011;5021;51.506;11.320;2023-01-26T09:25:08;12.20;;;9.10;;
9960;SDS011;5021;51.506;11.320;2023-01-26T09:27:34;13.67;;;9.43;;
9960;SDS011;5021;51.506;11.320;2023-01-26T09:30:00;11.53;;;9.43;;
9960;SDS011;5021;51.506;11.320;2023-01-26T09:32:26;11.43;;;7.90;;
9960;SDS011;5021;51.506;11.320;2023-01-26T09:34:52;10.57;;;7.67;;
9960;SDS011;5021;51.506;11.320;2023-01-26T09:37:17;13.40;;;9.07;;
9960;SDS011;5021;51.506;11.320;2023-01-26T09:39:43;10.97;;;7.10;;
9960;SDS011;5021;51.506;11.320;2023-01-26T09:42:19;12.30;;;8.43;;
9960;SDS011;5021;51.506;11.320;2023-01-26T09:47:29;10.80;;;8.13;;
9960;SDS011;5021;51.506;11.320;2023-01-26T09:50:00;11.63;;;7.90;;
9960;SDS011;5021;51.506;11.320;2023-01-26T09:52:28;10.70;;;7.87;;
9960;SDS011;5021;51.506;11.320;2023-01-26T09:54:56;11.67;;;8.33;;
9960;SDS011;5021;51.506;11.320;2023-01-26T09:57:36;12.00;;;8.67;;
9960;SDS011;5021;51.506;11.320;2023-01-26T10:00:07;16.50;;;11.10;;
9960;SDS011;5021;51.506;11.320;2023-01-26T10:07:54;10.80;;;7.50;;
9960;SDS011;5021;51.506;11.320;2023-01-26T10:10:28;9.90;;;7.40;;
9960;SDS011;5021;51.506;11.320;2023-01-26T10:12:56;9.57;;;6.80;;
9960;SDS011;5021;51.506;11.320;2023-01-26T10:15:30;9.47;;;7.03;;
9960;SDS011;5021;51.506;11.320;2023-01-26T10:17:58;9.33;;;6.83;;
9960;SDS011;5021;51.506;11.320;2023-01-26T10:20:30;9.17;;;6.70;;
9960;SDS011;5021;51.506;11.320;2023-01-26T10:23:01;8.23;;;6.50;;
9960;SDS011;5021;51.506;11.320;2023-01-26T10:25:32;9.57;;;6.60;;
9960;SDS011;5021;51.506;11.320;2023-01-26T10:27:59;8.03;;;5.80;;
9960;SDS011;5021;51.506;11.320;2023-01-26T10:30:25;6.33;;;5.07;;
9960;SDS011;5021;51.506;11.320;2023-01-26T10:32:51;6.40;;;5.20;;
9960;SDS011;5021;51.506;11.320;2023-01-26T10:35:21;6.03;;;5.17;;
9960;SDS011;5021;51.506;11.320;2023-01-26T10:37:47;6.53;;;5.20;;
9960;SDS011;5021;51.506;11.320;2023-01-26T10:40:14;6.27;;;5.17;;
9960;SDS011;5021;51.506;11.320;2023-01-26T10:42:41;6.50;;;5.33;;
9960;SDS011;5021;51.506;11.320;2023-01-26T10:45:31;6.13;;;5.40;;
9960;SDS011;5021;51.506;11.320;2023-01-26T10:48:16;6.43;;;5.03;;
9960;SDS011;5021;51.506;11.320;2023-01-26T10:50:43;6.97;;;5.33;;
9960;SDS011;5021;51.506;11.320;2023-01-26T10:53:17;7.13;;;5.47;;
9960;SDS011;5021;51.506;11.320;2023-01-26T10:55:43;6.67;;;5.40;;
9960;SDS011;5021;51.506;11.320;2023-01-26T10:58:40;25.27;;;14.23;;
9960;SDS011;5021;51.506;11.320;2023-01-26T11:01:08;28.97;;;15.97;;
9960;SDS011;5021;51.506;11.320;2023-01-26T11:03:36;11.20;;;8.03;;
9960;SDS011;5021;51.506;11.320;2023-01-26T11:06:20;8.60;;;6.57;;
9960;SDS011;5021;51.506;11.320;2023-01-26T11:08:51;8.80;;;6.77;;
9960;SDS011;5021;51.506;11.320;2023-01-26T11:11:24;13.30;;;9.97;;
9960;SDS011;5021;51.506;11.320;2023-01-26T11:14:08;11.10;;;7.70;;
9960;SDS011;5021;51.506;11.320;2023-01-26T11:16:34;12.17;;;8.53;;
9960;SDS011;5021;51.506;11.320;2023-01-26T11:19:12;6.70;;;5.93;;
9960;SDS011;5021;51.506;11.320;2023-01-26T11:34:52;13.97;;;8.53;;
9960;SDS011;5021;51.506;11.320;2023-01-26T11:37:29;11.90;;;8.53;;
9960;SDS011;5021;51.506;11.320;2023-01-26T11:40:00;12.50;;;8.40;;
9960;SDS011;5021;51.506;11.320;2023-01-26T11:42:42;10.97;;;8.00;;
9960;SDS011;5021;51.506;11.320;2023-01-26T11:47:43;11.43;;;8.60;;
9960;SDS011;5021;51.506;11.320;2023-01-26T11:50:20;13.67;;;8.63;;
9960;SDS011;5021;51.506;11.320;2023-01-26T11:52:58;13.07;;;8.97;;
9960;SDS011;5021;51.506;11.320;2023-01-26T11:55:44;12.17;;;8.47;;
9960;SDS011;5021;51.506;11.320;2023-01-26T11:58:18;13.80;;;7.77;;
9960;SDS011;5021;51.506;11.320;2023-01-26T12:00:52;13.10;;;8.50;;
9960;SDS011;5021;51.506;11.320;2023-01-26T12:03:22;11.50;;;8.20;;
9960;SDS011;5021;51.506;11.320;2023-01-26T12:05:53;13.60;;;8.67;;
9960;SDS011;5021;51.506;11.320;2023-01-26T12:08:28;12.37;;;7.83;;
9960;SDS011;5021;51.506;11.320;2023-01-26T12:11:24;12.37;;;7.80;;
9960;SDS011;5021;51.506;11.320;2023-01-26T12:14:02;11.37;;;7.50;;
9960;SDS011;5021;51.506;11.320;2023-01-26T12:19:09;10.60;;;7.50;;
9960;SDS011;5021;51.506;11.320;2023-01-26T12:21:38;11.47;;;7.33;;
9960;SDS011;5021;51.506;11.320;2023-01-26T12:24:07;11.67;;;7.53;;
9960;SDS011;5021;51.506;11.320;2023-01-26T12:26:40;12.97;;;8.23;;
9960;SDS011;5021;51.506;11.320;2023-01-26T12:31:44;10.67;;;7.30;;
9960;SDS011;5021;51.506;11.320;2023-01-26T12:34:14;11.10;;;7.17;;
9960;SDS011;5021;51.506;11.320;2023-01-26T12:39:47;9.53;;;6.63;;
9960;SDS011;5021;51.506;11.320;2023-01-26T12:45:06;8.77;;;5.80;;
9960;SDS011;5021;51.506;11.320;2023-01-26T12:47:35;9.73;;;6.67;;
9960;SDS011;5021;51.506;11.320;2023-01-26T12:50:15;12.63;;;7.47;;
9960;SDS011;5021;51.506;11.320;2023-01-26T12:52:45;9.00;;;6.13;;
9960;SDS011;5021;51.506;11.320;2023-01-26T12:55:17;8.63;;;6.27;;
9960;SDS011;5021;51.506;11.320;2023-01-26T12:57:47;10.70;;;7.03;;
9960;SDS011;5021;51.506;11.320;2023-01-26T13:00:18;9.67;;;6.57;;
9960;SDS011;5021;51.506;11.320;2023-01-26T13:02:46;7.63;;;5.30;;
9960;SDS011;5021;51.506;11.320;2023-01-26T13:05:24;8.40;;;5.93;;
9960;SDS011;5021;51.506;11.320;2023-01-26T13:07:50;8.73;;;6.53;;
9960;SDS011;5021;51.506;11.320;2023-01-26T13:12:47;7.93;;;5.97;;
9960;SDS011;5021;51.506;11.320;2023-01-26T13:15:14;7.60;;;5.53;;
9960;SDS011;5021;51.506;11.320;2023-01-26T13:17:45;8.17;;;5.90;;
9960;SDS011;5021;51.506;11.320;2023-01-26T13:20:40;11.13;;;7.00;;
9960;SDS011;5021;51.506;11.320;2023-01-26T13:26:08;7.73;;;5.23;;
9960;SDS011;5021;51.506;11.320;2023-01-26T13:28:36;7.00;;;4.70;;
9960;SDS011;5021;51.506;11.320;2023-01-26T13:31:04;6.67;;;4.97;;
9960;SDS011;5021;51.506;11.320;2023-01-26T13:33:30;6.90;;;4.67;;
9960;SDS011;5021;51.506;11.320;2023-01-26T13:35:56;5.83;;;4.33;;
9960;SDS011;5021;51.506;11.320;2023-01-26T13:38:25;6.63;;;5.53;;
9960;SDS011;5021;51.506;11.320;2023-01-26T13:40:52;7.63;;;4.63;;
9960;SDS011;5021;51.506;11.320;2023-01-26T13:45:49;6.03;;;4.50;;
9960;SDS011;5021;51.506;11.320;2023-01-26T13:48:25;5.63;;;4.13;;
9960;SDS011;5021;51.506;11.320;2023-01-26T13:50:53;5.47;;;4.43;;
9960;SDS011;5021;51.506;11.320;2023-01-26T13:53:26;6.43;;;4.60;;
9960;SDS011;5021;51.506;11.320;2023-01-26T13:55:55;7.03;;;4.73;;
9960;SDS011;5021;51.506;11.320;2023-01-26T13:58:22;6.77;;;5.00;;
9960;SDS011;5021;51.506;11.320;2023-01-26T14:01:01;5.17;;;4.03;;
9960;SDS011;5021;51.506;11.320;2023-01-26T14:03:27;5.17;;;3.90;;
9960;SDS011;5021;51.506;11.320;2023-01-26T14:06:05;6.33;;;4.53;;
9960;SDS011;5021;51.506;11.320;2023-01-26T14:08:35;5.63;;;4.33;;
9960;SDS011;5021;51.506;11.320;2023-01-26T14:11:03;6.83;;;4.43;;
9960;SDS011;5021;51.506;11.320;2023-01-26T14:15:56;5.37;;;4.10;;
9960;SDS011;5021;51.506;11.320;2023-01-26T14:18:23;6.57;;;4.30;;
9960;SDS011;5021;51.506;11.320;2023-01-26T14:20:56;6.83;;;5.10;;
9960;SDS011;5021;51.506;11.320;2023-01-26T14:23:32;5.33;;;4.17;;
9960;SDS011;5021;51.506;11.320;2023-01-26T14:26:00;5.07;;;3.83;;
9960;SDS011;5021;51.506;11.320;2023-01-26T14:28:30;5.80;;;4.23;;
9960;SDS011;5021;51.506;11.320;2023-01-26T14:31:09;5.90;;;4.40;;
9960;SDS011;5021;51.506;11.320;2023-01-26T14:33:38;6.37;;;5.00;;
9960;SDS011;5021;51.506;11.320;2023-01-26T14:36:04;6.67;;;4.27;;
9960;SDS011;5021;51.506;11.320;2023-01-26T14:38:41;6.13;;;4.40;;
9960;SDS011;5021;51.506;11.320;2023-01-26T14:41:09;6.30;;;4.43;;
9960;SDS011;5021;51.506;11.320;2023-01-26T14:43:37;5.53;;;4.13;;
9960;SDS011;5021;51.506;11.320;2023-01-26T14:46:08;5.87;;;4.50;;
9960;SDS011;5021;51.506;11.320;2023-01-26T14:48:39;6.00;;;4.10;;
9960;SDS011;5021;51.506;11.320;2023-01-26T14:51:06;6.00;;;4.17;;
9960;SDS011;5021;51.506;11.320;2023-01-26T14:53:38;5.33;;;4.27;;
9960;SDS011;5021;51.506;11.320;2023-01-26T14:56:04;6.70;;;4.93;;
9960;SDS011;5021;51.506;11.320;2023-01-26T14:58:30;6.33;;;4.90;;
9960;SDS011;5021;51.506;11.320;2023-01-26T15:00:57;6.93;;;5.33;;
9960;SDS011;5021;51.506;11.320;2023-01-26T15:06:02;8.97;;;6.37;;
9960;SDS011;5021;51.506;11.320;2023-01-26T15:08:28;9.83;;;6.43;;
9960;SDS011;5021;51.506;11.320;2023-01-26T15:10:58;9.37;;;6.10;;
9960;SDS011;5021;51.506;11.320;2023-01-26T15:13:44;8.03;;;5.70;;
9960;SDS011;5021;51.506;11.320;2023-01-26T15:16:15;9.00;;;5.70;;
9960;SDS011;5021;51.506;11.320;2023-01-26T15:18:41;7.97;;;5.60;;
9960;SDS011;5021;51.506;11.320;2023-01-26T15:21:11;9.47;;;6.17;;
9960;SDS011;5021;51.506;11.320;2023-01-26T15:23:42;10.30;;;6.90;;
9960;SDS011;5021;51.506;11.320;2023-01-26T15:26:13;13.80;;;8.23;;
9960;SDS011;5021;51.506;11.320;2023-01-26T15:28:39;11.17;;;7.83;;
9960;SDS011;5021;51.506;11.320;2023-01-26T15:31:05;15.40;;;8.50;;
9960;SDS011;5021;51.506;11.320;2023-01-26T15:33:36;14.30;;;9.03;;
9960;SDS011;5021;51.506;11.320;2023-01-26T15:36:02;12.03;;;8.67;;
9960;SDS011;5021;51.506;11.320;2023-01-26T15:38:28;14.30;;;9.23;;
9960;SDS011;5021;51.506;11.320;2023-01-26T15:40:54;12.57;;;9.20;;
9960;SDS011;5021;51.506;11.320;2023-01-26T15:43:20;19.80;;;13.00;;
9960;SDS011;5021;51.506;11.320;2023-01-26T15:48:13;21.47;;;12.93;;
9960;SDS011;5021;51.506;11.320;2023-01-26T15:50:39;19.33;;;11.93;;
9960;SDS011;5021;51.506;11.320;2023-01-26T15:53:04;23.93;;;15.03;;
9960;SDS011;5021;51.506;11.320;2023-01-26T15:55:31;19.80;;;12.50;;
9960;SDS011;5021;51.506;11.320;2023-01-26T15:57:57;22.73;;;14.87;;